createdAt,value
2018-07-24T00:01:04.837Z,58.14
2018-07-24T00:03:34.134Z,57.31
2018-07-24T00:06:03.445Z,57.39
2018-07-24T00:08:32.730Z,58.21
2018-07-24T00:11:02.070Z,57.20
2018-07-24T00:13:31.354Z,56.45
2018-07-24T00:16:00.712Z,58.09
2018-07-24T00:18:30.197Z,58.25
2018-07-24T00:20:59.469Z,58.66
2018-07-24T00:23:28.747Z,57.24
2018-07-24T00:25:58.054Z,56.79
2018-07-24T00:28:27.418Z,56.57
2018-07-24T00:30:56.822Z,56.21
2018-07-24T00:33:26.178Z,56.23
2018-07-24T00:35:55.446Z,57.20
2018-07-24T00:38:25.298Z,58.22
2018-07-24T00:40:54.721Z,57.41
2018-07-24T00:43:24.107Z,57.38
2018-07-24T00:45:53.374Z,56.33
2018-07-24T00:48:22.673Z,57.89
2018-07-24T00:50:52.015Z,57.42
2018-07-24T00:53:21.324Z,57.49
2018-07-24T00:55:50.746Z,58.87
2018-07-24T00:58:20.229Z,57.82
2018-07-24T01:00:49.561Z,56.45
2018-07-24T01:03:18.869Z,58.31
2018-07-24T01:05:48.203Z,56.40
2018-07-24T01:08:17.533Z,57.52
2018-07-24T01:10:46.824Z,58.92
2018-07-24T01:13:16.181Z,57.25
2018-07-24T01:15:45.577Z,58.09
2018-07-24T01:18:14.909Z,58.34
2018-07-24T01:20:44.209Z,58.47
2018-07-24T01:23:13.658Z,58.61
2018-07-24T01:25:42.969Z,57.05
2018-07-24T01:28:12.237Z,57.48
2018-07-24T01:30:41.577Z,58.21
2018-07-24T01:33:10.913Z,59.13
2018-07-24T01:35:40.213Z,58.27
2018-07-24T01:38:09.621Z,58.75
2018-07-24T01:40:38.953Z,59.22
2018-07-24T01:43:08.301Z,58.71
2018-07-24T01:45:37.782Z,57.71
2018-07-24T01:48:07.173Z,58.60
2018-07-24T01:50:36.441Z,57.81
2018-07-24T01:53:05.813Z,57.44
2018-07-24T01:55:35.129Z,56.70
2018-07-24T01:58:07.538Z,58.60
2018-07-24T02:00:36.905Z,59.63
2018-07-24T02:03:06.277Z,59.35
2018-07-24T02:05:35.576Z,57.31
2018-07-24T02:08:05.095Z,56.94
2018-07-24T02:10:34.469Z,56.73
2018-07-24T02:13:03.841Z,57.53
2018-07-24T02:15:33.152Z,57.90
2018-07-24T02:18:02.486Z,59.55
2018-07-24T02:20:31.786Z,59.39
2018-07-24T02:23:01.114Z,57.26
2018-07-24T02:25:30.461Z,57.99
2018-07-24T02:27:59.740Z,59.73
2018-07-24T02:30:29.066Z,59.09
2018-07-24T02:32:58.341Z,58.71
2018-07-24T02:35:27.611Z,59.60
2018-07-24T02:37:56.923Z,57.88
2018-07-24T02:40:26.193Z,59.49
2018-07-24T02:42:55.454Z,58.37
2018-07-24T02:45:24.737Z,58.67
2018-07-24T02:47:54.029Z,57.49
2018-07-24T02:50:23.427Z,57.47
2018-07-24T02:52:52.694Z,57.69
2018-07-24T02:55:22.076Z,57.81
2018-07-24T02:57:51.457Z,58.94
2018-07-24T03:00:37.453Z,60.40
2018-07-24T03:03:06.785Z,60.21
2018-07-24T03:05:36.094Z,59.77
2018-07-24T03:08:05.423Z,59.70
2018-07-24T03:10:34.692Z,60.17
2018-07-24T03:13:04.027Z,58.43
2018-07-24T03:15:33.321Z,59.79
2018-07-24T03:18:02.630Z,59.72
2018-07-24T03:20:31.998Z,59.69
2018-07-24T03:23:01.311Z,60.44
2018-07-24T03:25:30.578Z,59.57
2018-07-24T03:27:59.889Z,60.80
2018-07-24T03:30:29.246Z,59.09
2018-07-24T03:32:58.550Z,58.27
2018-07-24T03:35:27.814Z,58.60
2018-07-24T03:37:57.209Z,59.97
2018-07-24T03:40:26.557Z,60.28
2018-07-24T03:42:55.872Z,60.24
2018-07-24T03:45:25.204Z,59.99
2018-07-24T03:47:54.625Z,59.30
2018-07-24T03:50:23.984Z,58.60
2018-07-24T03:52:53.390Z,60.41
2018-07-24T03:55:22.769Z,60.42
2018-07-24T03:57:52.155Z,59.52
2018-07-24T04:00:21.507Z,59.26
2018-07-24T04:02:50.893Z,59.25
2018-07-24T04:05:20.302Z,60.15
2018-07-24T04:07:51.229Z,59.58
2018-07-24T04:10:21.737Z,59.03
2018-07-24T04:12:51.410Z,60.34
2018-07-24T04:15:20.803Z,58.77
2018-07-24T04:17:50.104Z,58.61
2018-07-24T04:20:19.385Z,59.30
2018-07-24T04:22:48.709Z,60.25
2018-07-24T04:25:18.132Z,59.57
2018-07-24T04:27:47.478Z,60.56
2018-07-24T04:30:16.805Z,59.66
2018-07-24T04:32:46.208Z,59.73
2018-07-24T04:35:16.746Z,59.41
2018-07-24T04:37:46.044Z,59.37
2018-07-24T04:40:16.630Z,58.40
2018-07-24T04:42:45.990Z,56.67
2018-07-24T04:45:15.408Z,56.21
2018-07-24T04:47:44.802Z,55.33
2018-07-24T04:50:14.330Z,55.58
2018-07-24T04:52:43.703Z,56.56
2018-07-24T04:55:13.162Z,55.96
2018-07-24T04:57:42.592Z,56.22
2018-07-24T05:00:12.180Z,55.46
2018-07-24T05:02:41.524Z,55.89
2018-07-24T05:05:10.889Z,55.92
2018-07-24T05:07:41.075Z,56.78
2018-07-24T05:10:10.567Z,57.55
2018-07-24T05:12:39.905Z,55.38
2018-07-24T05:15:10.189Z,55.46
2018-07-24T05:17:39.852Z,54.29
2018-07-24T05:20:09.358Z,54.99
2018-07-24T05:22:39.531Z,54.60
2018-07-24T05:25:08.899Z,53.98
2018-07-24T05:27:38.269Z,53.18
2018-07-24T05:30:07.914Z,53.81
2018-07-24T05:32:37.232Z,53.11
2018-07-24T05:35:06.878Z,53.86
2018-07-24T05:37:36.182Z,54.16
2018-07-24T05:40:07.604Z,53.81
2018-07-24T05:42:36.908Z,51.38
2018-07-24T05:45:07.431Z,46.91
2018-07-24T05:47:36.721Z,42.82
2018-07-24T05:50:06.198Z,41.07
2018-07-24T05:52:35.557Z,37.52
2018-07-24T05:55:04.876Z,37.67
2018-07-24T05:57:34.251Z,35.51
2018-07-24T06:00:03.589Z,32.75
2018-07-24T06:02:32.899Z,33.39
2018-07-24T06:05:02.311Z,30.80
2018-07-24T06:07:31.690Z,31.12
2018-07-24T06:10:01.125Z,32.54
2018-07-24T06:12:30.468Z,30.19
2018-07-24T06:14:59.828Z,29.29
2018-07-24T06:17:29.184Z,28.43
2018-07-24T06:19:58.738Z,29.45
2018-07-24T06:22:28.043Z,28.68
2018-07-24T06:24:57.384Z,26.68
2018-07-24T06:27:26.738Z,25.75
2018-07-24T06:29:56.110Z,27.59
2018-07-24T06:32:25.487Z,27.20
2018-07-24T06:34:54.892Z,27.45
2018-07-24T06:37:24.155Z,25.69
2018-07-24T06:39:53.485Z,24.73
2018-07-24T06:42:22.788Z,24.53
2018-07-24T06:44:52.188Z,23.64
2018-07-24T06:47:21.465Z,24.72
2018-07-24T06:49:50.879Z,23.46
2018-07-24T06:52:20.286Z,20.57
2018-07-24T06:54:49.611Z,20.51
2018-07-24T06:57:18.897Z,21.82
2018-07-24T06:59:48.212Z,20.01
2018-07-24T07:02:17.607Z,20.43
2018-07-24T07:04:47.020Z,19.96
2018-07-24T07:07:17.466Z,20.13
2018-07-24T07:09:46.815Z,19.36
2018-07-24T07:12:16.095Z,20.39
2018-07-24T07:14:45.403Z,19.65
2018-07-24T07:17:14.677Z,20.10
2018-07-24T07:19:44.048Z,21.54
2018-07-24T07:22:13.360Z,18.79
2018-07-24T07:24:42.745Z,20.22
2018-07-24T07:27:12.042Z,20.10
2018-07-24T07:29:41.333Z,18.78
2018-07-24T07:32:17.068Z,19.29
2018-07-24T07:34:46.362Z,18.47
2018-07-24T07:37:15.695Z,18.82
2018-07-24T07:39:45.507Z,19.27
2018-07-24T07:42:14.946Z,20.81
2018-07-24T07:44:44.300Z,18.38
2018-07-24T07:47:13.609Z,17.46
2018-07-24T07:49:42.974Z,19.13
2018-07-24T07:52:12.320Z,18.49
2018-07-24T07:54:41.657Z,18.02
2018-07-24T07:57:11.010Z,18.27
2018-07-24T07:59:40.305Z,18.03
2018-07-24T08:02:09.685Z,17.77
2018-07-24T08:04:39.011Z,16.27
2018-07-24T08:07:08.336Z,16.97
2018-07-24T08:09:37.673Z,17.61
2018-07-24T08:12:07.121Z,17.73
2018-07-24T08:14:36.519Z,17.74
2018-07-24T08:17:06.096Z,16.93
2018-07-24T08:19:35.432Z,17.24
2018-07-24T08:22:04.793Z,18.19
2018-07-24T08:24:34.283Z,16.68
2018-07-24T08:27:03.629Z,17.33
2018-07-24T08:29:33.161Z,17.01
2018-07-24T08:32:02.545Z,16.36
2018-07-24T08:34:32.156Z,16.28
2018-07-24T08:37:01.462Z,17.44
2018-07-24T08:39:30.899Z,16.56
2018-07-24T08:42:00.212Z,17.27
2018-07-24T08:44:29.812Z,15.89
2018-07-24T08:46:59.357Z,14.92
2018-07-24T08:49:28.717Z,16.04
2018-07-24T08:51:58.097Z,18.16
2018-07-24T08:54:27.627Z,16.03
2018-07-24T08:56:57.803Z,16.52
2018-07-24T08:59:27.172Z,16.44
2018-07-24T09:01:56.467Z,18.09
2018-07-24T09:04:25.977Z,17.46
2018-07-24T09:06:55.286Z,17.13
2018-07-24T09:09:24.570Z,17.02
2018-07-24T09:11:53.896Z,16.19
2018-07-24T09:14:23.261Z,16.43
2018-07-24T09:16:52.686Z,18.93
2018-07-24T09:19:22.039Z,16.73
2018-07-24T09:21:51.475Z,15.79
2018-07-24T09:24:20.756Z,15.88
2018-07-24T09:26:50.174Z,16.29
2018-07-24T09:29:19.485Z,14.86
2018-07-24T09:31:48.835Z,14.48
2018-07-24T09:34:18.303Z,14.39
2018-07-24T09:36:47.878Z,15.94
2018-07-24T09:39:17.211Z,15.07
2018-07-24T09:41:46.618Z,14.92
2018-07-24T09:44:15.996Z,15.43
2018-07-24T09:46:45.474Z,14.51
2018-07-24T09:49:14.806Z,14.02
2018-07-24T09:51:44.202Z,14.66
2018-07-24T09:54:13.507Z,13.41
2018-07-24T09:56:42.887Z,14.25
2018-07-24T09:59:17.694Z,14.46
2018-07-24T10:01:47.121Z,14.85
2018-07-24T10:04:16.656Z,14.94
2018-07-24T10:06:46.058Z,15.69
2018-07-24T10:09:15.420Z,13.90
2018-07-24T10:11:44.753Z,14.40
2018-07-24T10:14:14.232Z,15.35
2018-07-24T10:16:43.637Z,15.36
2018-07-24T10:19:14.058Z,17.13
2018-07-24T10:21:43.466Z,17.14
2018-07-24T10:24:12.906Z,15.79
2018-07-24T10:26:42.330Z,16.23
2018-07-24T10:29:11.661Z,17.27
2018-07-24T10:31:41.059Z,15.95
2018-07-24T10:34:10.525Z,14.97
2018-07-24T10:36:39.882Z,15.79
2018-07-24T10:39:10.962Z,14.80
2018-07-24T10:41:40.273Z,14.74
2018-07-24T10:44:09.634Z,14.85
2018-07-24T10:46:39.580Z,14.83
2018-07-24T10:49:09.861Z,15.83
2018-07-24T10:51:39.422Z,15.90
2018-07-24T10:54:08.843Z,16.33
2018-07-24T10:56:38.244Z,15.67
2018-07-24T10:59:07.608Z,16.29
2018-07-24T11:01:36.949Z,14.90
2018-07-24T11:04:06.328Z,14.73
2018-07-24T11:06:35.754Z,16.16
2018-07-24T11:09:07.804Z,15.75
2018-07-24T11:11:37.160Z,17.25
2018-07-24T11:14:06.701Z,16.52
2018-07-24T11:16:36.219Z,16.31
2018-07-24T11:19:05.694Z,16.92
2018-07-24T11:21:35.148Z,16.72
2018-07-24T11:24:04.547Z,16.69
2018-07-24T11:26:34.001Z,15.93
2018-07-24T11:29:03.350Z,16.58
2018-07-24T11:31:32.759Z,17.66
2018-07-24T11:34:02.112Z,18.01
2018-07-24T11:36:31.523Z,18.01
2018-07-24T11:39:01.099Z,19.40
2018-07-24T11:41:30.528Z,19.15
2018-07-24T11:43:59.910Z,19.79
2018-07-24T11:46:29.252Z,18.71
2018-07-24T11:48:58.992Z,20.15
2018-07-24T11:51:28.455Z,19.87
2018-07-24T11:53:57.851Z,21.12
2018-07-24T11:56:27.312Z,21.39
2018-07-24T11:58:56.647Z,20.49
2018-07-24T12:01:25.971Z,20.08
2018-07-24T12:03:55.382Z,20.34
2018-07-24T12:06:24.762Z,21.63
2018-07-24T12:08:54.136Z,20.61
2018-07-24T12:11:30.174Z,19.86
2018-07-24T12:14:00.549Z,19.59
2018-07-24T12:16:29.910Z,18.61
2018-07-24T12:18:59.302Z,20.15
2018-07-24T12:21:31.448Z,19.70
2018-07-24T12:24:02.106Z,19.73
2018-07-24T12:26:31.415Z,19.08
2018-07-24T12:29:00.737Z,19.98
2018-07-24T12:31:30.151Z,20.90
2018-07-24T12:33:59.519Z,20.31
2018-07-24T12:36:28.894Z,20.36
2018-07-24T12:38:58.258Z,19.84
2018-07-24T12:41:27.573Z,20.29
2018-07-24T12:43:56.926Z,20.16
2018-07-24T12:46:26.226Z,20.66
2018-07-24T12:48:55.619Z,20.22
2018-07-24T12:51:24.941Z,19.66
2018-07-24T12:53:56.665Z,19.47
2018-07-24T12:56:26.301Z,19.84
2018-07-24T12:58:55.599Z,20.29
2018-07-24T13:01:24.919Z,19.49
2018-07-24T13:03:54.338Z,19.83
2018-07-24T13:06:23.837Z,18.79
2018-07-24T13:08:53.195Z,20.96
2018-07-24T13:11:22.503Z,21.12
2018-07-24T13:13:51.889Z,20.46
2018-07-24T13:16:21.286Z,21.49
2018-07-24T13:18:50.604Z,21.54
2018-07-24T13:21:19.931Z,20.50
2018-07-24T13:23:49.332Z,21.93
2018-07-24T13:26:18.644Z,20.94
2018-07-24T13:28:48.029Z,21.54
2018-07-24T13:31:17.490Z,22.04
2018-07-24T13:33:46.892Z,21.28
2018-07-24T13:36:16.249Z,21.49
2018-07-24T13:38:45.608Z,21.05
2018-07-24T13:41:15.023Z,20.72
2018-07-24T13:43:44.404Z,22.14
2018-07-24T13:46:13.821Z,21.11
2018-07-24T13:48:43.218Z,21.48
2018-07-24T13:51:12.582Z,21.00
2018-07-24T13:53:41.963Z,21.32
2018-07-24T13:56:11.306Z,20.75
2018-07-24T13:58:40.691Z,22.80
2018-07-24T14:01:10.046Z,22.29
2018-07-24T14:03:39.330Z,21.27
2018-07-24T14:06:08.809Z,21.57
2018-07-24T14:08:38.139Z,22.00
2018-07-24T14:11:07.473Z,20.27
2018-07-24T14:13:36.867Z,20.60
2018-07-24T14:16:06.227Z,21.57
2018-07-24T14:18:35.550Z,21.85
2018-07-24T14:21:04.957Z,22.58
2018-07-24T14:23:34.296Z,20.49
2018-07-24T14:26:03.615Z,22.01
2018-07-24T14:28:32.968Z,22.63
2018-07-24T14:31:02.327Z,22.25
2018-07-24T14:33:31.696Z,21.61
2018-07-24T14:36:01.077Z,21.46
2018-07-24T14:38:30.376Z,21.62
2018-07-24T14:40:59.765Z,22.37
2018-07-24T14:43:29.050Z,21.32
2018-07-24T14:45:58.546Z,23.15
2018-07-24T14:48:27.952Z,21.29
2018-07-24T14:50:58.381Z,22.42
2018-07-24T14:53:27.699Z,23.18
2018-07-24T14:55:57.007Z,22.62
2018-07-24T14:58:26.339Z,23.60
2018-07-24T15:00:55.688Z,22.81
2018-07-24T15:03:25.116Z,23.47
2018-07-24T15:05:54.437Z,22.48
2018-07-24T15:08:23.829Z,22.25
2018-07-24T15:10:53.165Z,22.88
2018-07-24T15:16:06.454Z,21.81
2018-07-24T15:18:36.109Z,21.55
2018-07-24T15:21:05.447Z,22.28
2018-07-24T15:23:34.752Z,22.11
2018-07-24T15:26:04.353Z,21.08
2018-07-24T15:28:33.763Z,21.52
2018-07-24T15:31:03.068Z,21.17
2018-07-24T15:33:32.437Z,21.82
2018-07-24T15:36:01.722Z,22.31
2018-07-24T15:38:31.041Z,21.78
2018-07-24T15:41:00.334Z,22.01
2018-07-24T15:43:29.653Z,21.04
2018-07-24T15:45:58.998Z,22.53
2018-07-24T15:48:29.317Z,23.10
2018-07-24T15:50:58.668Z,22.45
2018-07-24T15:53:30.068Z,20.76
2018-07-24T15:55:59.514Z,21.08
2018-07-24T15:58:28.978Z,21.52
2018-07-24T16:00:58.349Z,21.56
2018-07-24T16:03:27.842Z,21.49
2018-07-24T16:05:57.240Z,22.85
2018-07-24T16:08:26.630Z,23.20
2018-07-24T16:10:56.186Z,22.43
2018-07-24T16:13:26.013Z,21.98
2018-07-24T16:15:55.575Z,21.19
2018-07-24T16:18:25.889Z,21.15
2018-07-24T16:20:55.240Z,21.55
2018-07-24T16:23:24.562Z,22.04
2018-07-24T16:25:53.944Z,21.50
2018-07-24T16:28:23.267Z,23.56
2018-07-24T16:30:52.643Z,22.99
2018-07-24T16:33:22.046Z,22.65
2018-07-24T16:35:51.460Z,21.60
2018-07-24T16:38:21.917Z,22.00
2018-07-24T16:40:51.254Z,22.82
2018-07-24T16:43:22.611Z,22.59
2018-07-24T16:45:51.946Z,22.50
2018-07-24T16:48:23.417Z,23.06
2018-07-24T16:50:52.812Z,22.92
2018-07-24T16:53:22.166Z,23.39
2018-07-24T16:55:54.532Z,23.96
2018-07-24T16:58:25.006Z,22.60
2018-07-24T17:00:54.491Z,23.77
2018-07-24T17:03:23.790Z,22.74
2018-07-24T17:05:53.181Z,23.85
2018-07-24T17:08:22.523Z,23.55
2018-07-24T17:10:52.008Z,22.87
2018-07-24T17:13:21.363Z,24.48
2018-07-24T17:15:50.644Z,24.35
2018-07-24T17:18:19.969Z,23.94
2018-07-24T17:20:51.309Z,23.70
2018-07-24T17:23:20.761Z,24.34
2018-07-24T17:25:50.317Z,24.58
2018-07-24T17:28:19.605Z,23.87
2018-07-24T17:30:49.020Z,25.26
2018-07-24T17:33:18.341Z,25.57
2018-07-24T17:35:47.679Z,26.03
2018-07-24T17:38:17.078Z,25.82
2018-07-24T17:40:46.413Z,26.37
2018-07-24T17:43:15.736Z,27.32
2018-07-24T17:45:45.194Z,28.93
2018-07-24T17:48:14.526Z,29.15
2018-07-24T17:50:43.830Z,27.79
2018-07-24T17:53:15.262Z,28.49
2018-07-24T17:55:44.576Z,29.42
2018-07-24T17:58:13.854Z,29.63
2018-07-24T18:00:44.212Z,28.42
2018-07-24T18:03:14.587Z,29.68
2018-07-24T18:05:43.860Z,29.74
2018-07-24T18:08:13.186Z,29.99
2018-07-24T18:10:44.517Z,28.82
2018-07-24T18:13:13.924Z,29.99
2018-07-24T18:15:46.114Z,29.57
2018-07-24T18:18:15.465Z,28.84
2018-07-24T18:20:45.146Z,29.91
2018-07-24T18:23:15.558Z,31.42
2018-07-24T18:25:44.900Z,31.25
2018-07-24T18:28:14.301Z,32.38
2018-07-24T18:30:43.638Z,33.29
2018-07-24T18:33:13.930Z,33.66
2018-07-24T18:35:47.101Z,33.61
2018-07-24T18:38:16.484Z,35.07
2018-07-24T18:40:47.850Z,35.02
2018-07-24T18:43:18.210Z,36.00
2018-07-24T18:45:49.585Z,35.74
2018-07-24T18:48:20.910Z,35.27
2018-07-24T18:50:50.333Z,35.55
2018-07-24T18:53:19.690Z,34.95
2018-07-24T18:55:49.035Z,35.80
2018-07-24T18:58:18.380Z,35.90
2018-07-24T19:00:47.692Z,34.99
2018-07-24T19:03:17.132Z,35.62
2018-07-24T19:05:46.566Z,36.12
2018-07-24T19:08:16.213Z,36.07
2018-07-24T19:10:45.983Z,35.64
2018-07-24T19:13:17.037Z,37.21
2018-07-24T19:15:46.663Z,36.45
2018-07-24T19:18:16.540Z,37.07
2018-07-24T19:20:46.712Z,37.95
2018-07-24T19:23:16.249Z,38.32
2018-07-24T19:25:45.661Z,38.46
2018-07-24T19:28:15.039Z,38.54
2018-07-24T19:30:44.385Z,37.91
2018-07-24T19:33:13.773Z,38.21
2018-07-24T19:35:43.113Z,39.39
2018-07-24T19:38:12.638Z,39.16
2018-07-24T19:40:41.973Z,39.97
2018-07-24T19:43:11.342Z,38.40
2018-07-24T19:45:40.621Z,39.21
2018-07-24T19:48:11.163Z,40.54
2018-07-24T19:50:41.537Z,41.47
2018-07-24T19:53:10.862Z,40.60
2018-07-24T19:55:40.178Z,39.38
2018-07-24T19:58:09.517Z,40.84
2018-07-24T20:00:38.916Z,40.83
2018-07-24T20:03:08.234Z,41.70
2018-07-24T20:05:37.557Z,40.78
2018-07-24T20:08:06.929Z,39.06
2018-07-24T20:10:36.219Z,39.55
2018-07-24T20:13:05.570Z,40.65
2018-07-24T20:15:34.852Z,39.57
2018-07-24T20:18:04.134Z,41.24
2018-07-24T20:20:33.525Z,41.68
2018-07-24T20:23:02.897Z,40.49
2018-07-24T20:25:32.172Z,42.09
2018-07-24T20:28:02.464Z,41.51
2018-07-24T20:30:31.754Z,41.68
2018-07-24T20:33:01.170Z,41.19
2018-07-24T20:35:30.487Z,40.82
2018-07-24T20:37:59.737Z,41.38
2018-07-24T20:40:29.045Z,42.38
2018-07-24T20:42:58.441Z,42.77
2018-07-24T20:45:27.777Z,42.02
2018-07-24T20:47:57.080Z,42.65
2018-07-24T20:50:26.337Z,42.44
2018-07-24T20:52:55.675Z,43.72
2018-07-24T20:55:24.991Z,44.49
2018-07-24T20:57:54.399Z,42.79
2018-07-24T21:00:23.731Z,42.99
2018-07-24T21:02:53.001Z,43.40
2018-07-24T21:05:22.293Z,43.60
2018-07-24T21:07:51.650Z,43.43
2018-07-24T21:10:20.921Z,44.01
2018-07-24T21:12:50.725Z,43.23
2018-07-24T21:15:20.225Z,43.33
2018-07-24T21:17:49.506Z,43.39
2018-07-24T21:20:18.824Z,44.70
2018-07-24T21:22:48.089Z,45.14
2018-07-24T21:25:17.346Z,44.67
2018-07-24T21:27:46.694Z,46.35
2018-07-24T21:30:15.965Z,45.07
2018-07-24T21:32:45.329Z,46.21
2018-07-24T21:35:14.590Z,45.43
2018-07-24T21:37:43.896Z,45.60
2018-07-24T21:40:13.978Z,46.30
2018-07-24T21:42:43.289Z,46.02
2018-07-24T21:45:12.549Z,44.70
2018-07-24T21:47:41.845Z,45.17
2018-07-24T21:50:11.109Z,46.89
2018-07-24T21:52:40.470Z,46.31
2018-07-24T21:55:09.794Z,47.02
2018-07-24T21:57:39.064Z,47.16
2018-07-24T22:00:10.592Z,46.62
2018-07-24T22:02:39.898Z,46.97
2018-07-24T22:05:09.368Z,47.91
2018-07-24T22:07:38.721Z,47.36
2018-07-24T22:10:13.334Z,46.43
2018-07-24T22:12:42.721Z,48.04
2018-07-24T22:15:23.984Z,48.12
2018-07-24T22:17:53.634Z,48.01
2018-07-24T22:20:23.181Z,48.51
2018-07-24T22:22:52.725Z,48.07
2018-07-24T22:25:22.041Z,48.54
2018-07-24T22:27:51.336Z,47.80
2018-07-24T22:30:20.618Z,47.65
2018-07-24T22:32:49.888Z,47.35
2018-07-24T22:35:19.198Z,47.29
2018-07-24T22:37:48.572Z,47.99
2018-07-24T22:40:17.884Z,47.29
2018-07-24T22:42:47.252Z,48.95
2018-07-24T22:45:16.573Z,48.59
2018-07-24T22:47:45.888Z,48.17
2018-07-24T22:50:15.227Z,49.06
2018-07-24T22:52:44.463Z,48.99
2018-07-24T22:55:13.730Z,48.66
2018-07-24T22:57:43.177Z,48.69
2018-07-24T23:00:12.457Z,47.79
2018-07-24T23:02:41.917Z,48.64
2018-07-24T23:05:11.314Z,47.58
2018-07-24T23:07:40.607Z,48.58
2018-07-24T23:10:09.934Z,49.22
2018-07-24T23:12:39.277Z,48.91
2018-07-24T23:15:08.629Z,49.26
2018-07-24T23:17:37.939Z,50.64
2018-07-24T23:20:07.254Z,49.07
2018-07-24T23:22:37.518Z,50.74
2018-07-24T23:25:06.834Z,51.59
2018-07-24T23:27:36.125Z,49.49
2018-07-24T23:30:05.501Z,49.53
2018-07-24T23:32:34.858Z,49.38
2018-07-24T23:35:04.208Z,49.40
2018-07-24T23:37:33.560Z,49.74
2018-07-24T23:40:02.912Z,50.33
2018-07-24T23:42:32.180Z,50.15
2018-07-24T23:45:01.550Z,50.39
2018-07-24T23:47:30.852Z,50.54
2018-07-24T23:50:00.307Z,51.22
2018-07-24T23:52:29.614Z,50.95
2018-07-24T23:54:59.003Z,51.45
2018-07-24T23:57:28.437Z,50.59
2018-07-24T23:59:57.737Z,52.23
